Map

Track Data

SID SEASON NUMBER BASIN SUBBASIN NAME ISO_TIME NATURE LAT LON WMO_WIND WMO_PRES WMO_AGENCY TRACK_TYPE DIST2LAND LANDFALL IFLAG USA_AGENCY USA_ATCF_ID USA_LAT USA_LON USA_RECORD USA_STATUS USA_WIND USA_PRES USA_SSHS USA_R34_NE USA_R34_SE USA_R34_SW USA_R34_NW USA_R50_NE USA_R50_SE USA_R50_SW USA_R50_NW USA_R64_NE USA_R64_SE USA_R64_SW USA_R64_NW USA_POCI USA_ROCI USA_RMW USA_EYE TOKYO_LAT TOKYO_LON TOKYO_GRADE TOKYO_WIND TOKYO_PRES TOKYO_R50_DIR TOKYO_R50_LONG TOKYO_R50_SHORT TOKYO_R30_DIR TOKYO_R30_LONG TOKYO_R30_SHORT TOKYO_LAND CMA_LAT CMA_LON CMA_CAT CMA_WIND CMA_PRES HKO_LAT HKO_LON HKO_CAT HKO_WIND HKO_PRES NEWDELHI_LAT NEWDELHI_LON NEWDELHI_GRADE NEWDELHI_WIND NEWDELHI_PRES NEWDELHI_CI NEWDELHI_DP NEWDELHI_POCI REUNION_LAT REUNION_LON REUNION_TYPE REUNION_WIND REUNION_PRES REUNION_TNUM REUNION_CI REUNION_RMW REUNION_R34_NE REUNION_R34_SE REUNION_R34_SW REUNION_R34_NW REUNION_R50_NE REUNION_R50_SE REUNION_R50_SW REUNION_R50_NW REUNION_R64_NE REUNION_R64_SE REUNION_R64_SW REUNION_R64_NW BOM_LAT BOM_LON BOM_TYPE BOM_WIND BOM_PRES BOM_TNUM BOM_CI BOM_RMW BOM_R34_NE BOM_R34_SE BOM_R34_SW BOM_R34_NW BOM_R50_NE BOM_R50_SE BOM_R50_SW BOM_R50_NW BOM_R64_NE BOM_R64_SE BOM_R64_SW BOM_R64_NW BOM_ROCI BOM_POCI BOM_EYE BOM_POS_METHOD BOM_PRES_METHOD NADI_LAT NADI_LON NADI_CAT NADI_WIND NADI_PRES WELLINGTON_LAT WELLINGTON_LON WELLINGTON_WIND WELLINGTON_PRES DS824_LAT DS824_LON DS824_STAGE DS824_WIND DS824_PRES TD9636_LAT TD9636_LON TD9636_STAGE TD9636_WIND TD9636_PRES TD9635_LAT TD9635_LON TD9635_WIND TD9635_PRES TD9635_ROCI NEUMANN_LAT NEUMANN_LON NEUMANN_CLASS NEUMANN_WIND NEUMANN_PRES MLC_LAT MLC_LON MLC_CLASS MLC_WIND MLC_PRES USA_GUST BOM_GUST BOM_GUST_PER REUNION_GUST REUNION_GUST_PER USA_SEAHGT USA_SEARAD_NE USA_SEARAD_SE USA_SEARAD_SW USA_SEARAD_NW STORM_SPEED STORM_DIR
1897294N14096 1897 41 NI BB NOT_NAMED 1897-10-21 00:00:00 TS 14.3000 95.9000 main 162 134 _________O____ -1 14.3000 95.9000 TC 64 8 301
1897294N14096 1897 41 NI BB NOT_NAMED 1897-10-21 03:00:00 TS 14.4985 95.5618 main 134 101 _________PO___ -1 14.5977 95.3928 TC 64 14.3000 95.9000 4 9 302
1897294N14096 1897 41 NI BB NOT_NAMED 1897-10-21 06:00:00 TS 14.7853 95.1036 main 101 74 _________OP___ -1 14.9000 94.9000 TC 64 14.6133 95.4089 4 11 303
1897294N14096 1897 41 NI BB NOT_NAMED 1897-10-21 09:00:00 TS 15.0846 94.6444 main 79 55 _________PP___ -1 15.2074 94.4349 TC 64 14.9209 94.9237 4 10 304
1897294N14096 1897 41 NI BB NOT_NAMED 1897-10-21 12:00:00 TS 15.3590 94.2258 main 49 46 _________OP___ -1 15.5000 94.0000 TC 64 15.2180 94.4516 4 10 304
1897294N14096 1897 41 NI BB NOT_NAMED 1897-10-21 15:00:00 TS 15.6287 93.7924 main 61 61 _________PO___ -1 15.7574 93.5849 TC 64 15.5000 94.0000 4 10 303
1897294N14096 1897 41 NI BB NOT_NAMED 1897-10-21 18:00:00 TS 15.8821 93.3878 main 86 86 _________OP___ -1 16.0000 93.2000 TC 64 15.7641 93.5756 4 9 304
1897294N14096 1897 41 NI BB NOT_NAMED 1897-10-21 21:00:00 TS 16.1323 93.0048 main 128 128 _________PP___ -1 16.2500 92.8274 TC 64 16.0147 93.1821 4 9 305
1897294N14096 1897 41 NI BB NOT_NAMED 1897-10-22 00:00:00 TS 16.3790 92.6613 main 166 166 _________OP___ -1 16.5000 92.5000 TC 64 16.2580 92.8225 4 8 309
1897294N14096 1897 41 NI BB NOT_NAMED 1897-10-22 03:00:00 TS 16.6250 92.3674 main 202 202 _________PO___ -1 16.7499 92.2349 TC 64 16.5000 92.5000 4 7 313
1897294N14096 1897 41 NI BB NOT_NAMED 1897-10-22 06:00:00 TS 16.8769 92.0988 main 238 238 _________OP___ -1 17.0000 92.0000 TC 64 16.7538 92.1976 4 7 315
1897294N14096 1897 41 NI BB NOT_NAMED 1897-10-22 09:00:00 TS 17.1324 91.8336 main 274 274 _________PP___ -1 17.2575 91.7350 TC 64 17.0072 91.9323 4 7 316
1897294N14096 1897 41 NI BB NOT_NAMED 1897-10-22 12:00:00 TS 17.3785 91.6004 main 285 280 _________OP___ -1 17.5000 91.5000 TC 64 17.2570 91.7008 4 6 320
1897294N14096 1897 41 NI BB NOT_NAMED 1897-10-22 15:00:00 TS 17.6000 91.4174 main 288 283 _________PO___ -1 17.6999 91.3349 TC 64 17.5000 91.5000 4 5 323
1897294N14096 1897 41 NI BB NOT_NAMED 1897-10-22 18:00:00 TS 17.8120 91.2544 main 286 286 _________OP___ -1 17.9000 91.2000 TC 64 17.7239 91.3088 4 5 325
1897294N14096 1897 41 NI BB NOT_NAMED 1897-10-22 21:00:00 TS 18.0424 91.0949 main 296 283 _________PP___ -1 18.1425 91.0425 TC 64 17.9424 91.1472 4 6 329
1897294N14096 1897 41 NI BB NOT_NAMED 1897-10-23 00:00:00 TS 18.2823 90.9560 main 283 275 _________OP___ -1 18.4000 90.9000 TC 64 18.1646 91.0120 4 5 333
1897294N14096 1897 41 NI BB NOT_NAMED 1897-10-23 03:00:00 TS 18.5212 90.8425 main 283 260 _________PO___ -1 18.6425 90.7850 TC 64 18.4000 90.9000 4 5 338
1897294N14096 1897 41 NI BB NOT_NAMED 1897-10-23 06:00:00 TS 18.7823 90.7456 main 268 248 _________OP___ -1 18.9000 90.7000 TC 64 18.6646 90.7912 4 6 344
1897294N14096 1897 41 NI BB NOT_NAMED 1897-10-23 09:00:00 TS 19.0712 90.6700 main 248 242 _________PP___ -1 19.2000 90.6350 TC 64 18.9424 90.7050 4 6 348
1897294N14096 1897 41 NI BB NOT_NAMED 1897-10-23 12:00:00 TS 19.3620 90.6206 main 237 224 _________OP___ -1 19.5000 90.6000 TC 64 19.2240 90.6413 4 6 353
1897294N14096 1897 41 NI BB NOT_NAMED 1897-10-23 15:00:00 TS 19.6287 90.5962 main 224 207 _________PO___ -1 19.7575 90.5925 TC 64 19.5000 90.6000 4 5 356
1897294N14096 1897 41 NI BB NOT_NAMED 1897-10-23 18:00:00 TS 19.8647 90.5887 main 207 194 _________OP___ -1 20.0000 90.6000 TC 64 19.7631 90.5803 4 5 358
1897294N14096 1897 41 NI BB NOT_NAMED 1897-10-23 21:00:00 TS 20.1080 90.5874 main 194 172 _________PP___ -1 20.2475 90.6025 TC 64 20.0150 90.5774 4 5 0
1897294N14096 1897 41 NI BB NOT_NAMED 1897-10-24 00:00:00 TS 20.3396 90.5906 main 172 151 _________OP___ -1 20.5000 90.6000 TC 64 20.2594 90.5859 4 4 0
1897294N14096 1897 41 NI BB NOT_NAMED 1897-10-24 03:00:00 NR 20.5000 90.6000 main 151 __________O___ -1 TC 20.5000 90.6000 4 3 0

About IBTrACS Database

This database is a web-friendly format of International Best Track Archive for Climate Stewardship (IBTrACS), a global best track data archive curated by NOAA dating back to 1842.

Updated: 2021-12-03